createdAt,value
2018-06-19T00:01:44.358Z,16.37
2018-06-19T00:04:14.068Z,16.37
2018-06-19T00:06:43.608Z,16.36
2018-06-19T00:09:12.982Z,16.38
2018-06-19T00:11:42.390Z,16.38
2018-06-19T00:14:11.489Z,16.37
2018-06-19T00:16:40.534Z,16.39
2018-06-19T00:19:10.445Z,16.43
2018-06-19T00:21:50.143Z,16.43
2018-06-19T00:24:19.998Z,16.45
2018-06-19T00:26:49.729Z,16.44
2018-06-19T00:29:18.815Z,16.44
2018-06-19T00:31:47.906Z,16.45
2018-06-19T00:34:17.476Z,16.47
2018-06-19T00:36:46.539Z,16.46
2018-06-19T00:39:15.811Z,16.47
2018-06-19T00:41:44.752Z,16.46
2018-06-19T00:44:14.058Z,16.48
2018-06-19T00:46:46.676Z,16.48
2018-06-19T00:49:16.003Z,16.50
2018-06-19T00:51:45.053Z,16.51
2018-06-19T00:54:14.597Z,16.52
2018-06-19T00:57:00.701Z,16.50
2018-06-19T00:59:30.092Z,16.45
2018-06-19T01:02:01.139Z,16.47
2018-06-19T01:04:30.141Z,16.47
2018-06-19T01:06:59.880Z,16.49
2018-06-19T01:09:29.994Z,16.48
2018-06-19T01:11:59.356Z,16.49
2018-06-19T01:14:28.351Z,16.48
2018-06-19T01:16:57.670Z,16.47
2018-06-19T01:19:27.269Z,16.46
2018-06-19T01:21:56.759Z,16.49
2018-06-19T01:24:25.830Z,16.48
2018-06-19T01:26:54.826Z,16.48
2018-06-19T01:29:24.222Z,16.45
2018-06-19T01:31:53.197Z,16.47
2018-06-19T01:34:22.239Z,16.46
2018-06-19T01:36:52.354Z,16.46
2018-06-19T01:39:22.154Z,16.46
2018-06-19T01:41:51.977Z,16.46
2018-06-19T01:44:22.084Z,16.48
2018-06-19T01:46:52.285Z,16.47
2018-06-19T01:49:21.502Z,16.46
2018-06-19T01:51:50.389Z,16.46
2018-06-19T01:54:19.941Z,16.44
2018-06-19T01:56:49.102Z,16.43
2018-06-19T01:59:18.099Z,16.44
2018-06-19T02:01:47.504Z,16.42
2018-06-19T02:04:16.720Z,16.44
2018-06-19T02:06:46.170Z,16.41
2018-06-19T02:09:15.562Z,16.43
2018-06-19T02:11:44.770Z,16.42
2018-06-19T02:14:13.983Z,16.42
2018-06-19T02:16:43.547Z,16.41
2018-06-19T02:19:13.122Z,16.42
2018-06-19T02:21:42.373Z,16.42
2018-06-19T02:24:11.315Z,16.44
2018-06-19T02:26:40.507Z,16.44
2018-06-19T02:29:09.900Z,16.45
2018-06-19T02:31:38.895Z,16.45
2018-06-19T02:34:07.877Z,16.44
2018-06-19T02:36:36.882Z,16.45
2018-06-19T02:39:09.191Z,16.44
2018-06-19T02:41:39.085Z,16.43
2018-06-19T02:44:10.046Z,16.45
2018-06-19T02:46:39.013Z,16.46
2018-06-19T02:49:08.279Z,16.48
2018-06-19T02:51:37.477Z,16.45
2018-06-19T02:54:06.902Z,16.46
2018-06-19T02:56:35.886Z,16.48
2018-06-19T02:59:04.872Z,16.45
2018-06-19T03:01:34.173Z,16.42
2018-06-19T03:04:03.435Z,16.43
2018-06-19T03:06:33.831Z,16.44
2018-06-19T03:09:03.302Z,16.46
2018-06-19T03:11:32.676Z,16.46
2018-06-19T03:14:01.956Z,16.47
2018-06-19T03:16:31.216Z,16.48
2018-06-19T03:19:00.157Z,16.46
2018-06-19T03:21:29.837Z,16.45
2018-06-19T03:23:59.068Z,16.46
2018-06-19T03:26:27.967Z,16.45
2018-06-19T03:28:57.295Z,16.46
2018-06-19T03:31:26.983Z,16.46
2018-06-19T03:33:56.554Z,16.48
2018-06-19T03:36:25.770Z,16.45
2018-06-19T03:38:55.154Z,16.43
2018-06-19T03:41:24.324Z,16.47
2018-06-19T03:43:53.914Z,16.48
2018-06-19T03:46:22.851Z,16.49
2018-06-19T03:48:51.999Z,16.48
2018-06-19T03:51:21.147Z,16.47
2018-06-19T03:53:50.201Z,16.49
2018-06-19T03:56:19.582Z,16.51
2018-06-19T03:58:48.537Z,16.52
2018-06-19T04:01:18.606Z,16.51
2018-06-19T04:03:47.844Z,16.48
2018-06-19T04:06:16.820Z,16.49
2018-06-19T04:08:46.136Z,16.48
2018-06-19T04:11:15.322Z,16.50
2018-06-19T04:13:44.411Z,16.51
2018-06-19T04:16:14.934Z,16.52
2018-06-19T04:18:45.752Z,16.56
2018-06-19T04:21:15.865Z,16.58
2018-06-19T04:23:44.964Z,16.59
2018-06-19T04:26:14.024Z,16.60
2018-06-19T04:28:43.111Z,16.63
2018-06-19T04:31:12.348Z,16.64
2018-06-19T04:33:41.765Z,16.66
2018-06-19T04:36:11.557Z,16.69
2018-06-19T04:38:40.627Z,16.69
2018-06-19T04:41:09.725Z,16.67
2018-06-19T04:43:39.402Z,16.69
2018-06-19T04:46:08.640Z,16.70
2018-06-19T04:48:38.164Z,16.72
2018-06-19T04:51:07.377Z,16.73
2018-06-19T04:53:36.926Z,16.74
2018-06-19T04:56:07.022Z,16.78
2018-06-19T04:58:36.495Z,16.81
2018-06-19T05:01:06.115Z,16.84
2018-06-19T05:03:35.665Z,16.84
2018-06-19T05:06:05.121Z,16.87
2018-06-19T05:08:34.923Z,16.89
2018-06-19T05:11:04.362Z,16.92
2018-06-19T05:13:34.045Z,16.93
2018-06-19T05:16:03.739Z,16.93
2018-06-19T05:18:33.553Z,16.98
2018-06-19T05:21:03.097Z,16.99
2018-06-19T05:23:32.599Z,17.02
2018-06-19T05:26:01.723Z,17.03
2018-06-19T05:28:30.751Z,17.05
2018-06-19T05:30:59.966Z,17.09
2018-06-19T05:33:29.075Z,17.16
2018-06-19T05:35:59.217Z,17.15
2018-06-19T05:38:28.413Z,17.15
2018-06-19T05:40:57.769Z,17.13
2018-06-19T05:43:27.952Z,17.13
2018-06-19T05:45:57.508Z,17.14
2018-06-19T05:48:27.076Z,17.06
2018-06-19T05:50:57.416Z,17.07
2018-06-19T05:53:26.842Z,17.03
2018-06-19T05:55:56.286Z,17.04
2018-06-19T05:58:25.656Z,17.05
2018-06-19T06:00:55.578Z,17.03
2018-06-19T06:03:25.253Z,17.05
2018-06-19T06:05:54.935Z,17.06
2018-06-19T06:08:24.059Z,17.05
2018-06-19T06:10:53.463Z,17.05
2018-06-19T06:13:22.848Z,17.07
2018-06-19T06:15:51.922Z,17.12
2018-06-19T06:18:22.092Z,17.10
2018-06-19T06:20:51.161Z,17.09
2018-06-19T06:23:20.477Z,17.09
2018-06-19T06:25:49.482Z,17.06
2018-06-19T06:28:18.692Z,17.07
2018-06-19T06:30:48.041Z,17.08
2018-06-19T06:33:17.711Z,17.07
2018-06-19T06:35:47.075Z,17.08
2018-06-19T06:38:16.227Z,17.06
2018-06-19T06:40:45.192Z,17.02
2018-06-19T06:43:14.093Z,17.04
2018-06-19T06:45:43.751Z,17.09
2018-06-19T06:48:13.147Z,17.11
2018-06-19T06:50:42.624Z,17.14
2018-06-19T06:53:11.795Z,17.16
2018-06-19T06:55:40.925Z,17.20
2018-06-19T06:58:10.039Z,17.19
2018-06-19T07:00:39.249Z,17.23
2018-06-19T07:03:08.491Z,17.28
2018-06-19T07:05:37.575Z,17.31
2018-06-19T07:08:06.385Z,17.35
2018-06-19T07:10:35.198Z,17.41
2018-06-19T07:13:05.039Z,17.44
2018-06-19T07:15:34.361Z,17.49
2018-06-19T07:18:03.707Z,17.53
2018-06-19T07:20:33.189Z,17.59
2018-06-19T07:23:02.163Z,17.65
2018-06-19T07:25:31.589Z,17.71
2018-06-19T07:28:00.452Z,17.76
2018-06-19T07:30:30.095Z,17.78
2018-06-19T07:32:58.898Z,17.84
2018-06-19T07:35:27.982Z,17.85
2018-06-19T07:37:56.856Z,17.86
2018-06-19T07:40:25.993Z,17.87
2018-06-19T07:42:55.142Z,17.86
2018-06-19T07:45:24.585Z,17.91
2018-06-19T07:47:53.444Z,17.99
2018-06-19T07:50:22.594Z,17.99
2018-06-19T07:52:51.736Z,18.00
2018-06-19T07:55:21.252Z,18.03
2018-06-19T07:57:50.760Z,18.07
2018-06-19T08:00:19.925Z,18.14
2018-06-19T08:02:49.115Z,18.15
2018-06-19T08:05:19.142Z,18.24
2018-06-19T08:07:48.471Z,18.26
2018-06-19T08:10:17.644Z,18.29
2018-06-19T08:12:47.050Z,18.28
2018-06-19T08:15:16.208Z,18.23
2018-06-19T08:17:45.456Z,18.24
2018-06-19T08:20:14.356Z,18.28
2018-06-19T08:22:43.252Z,18.32
2018-06-19T08:25:12.123Z,18.38
2018-06-19T08:27:41.708Z,18.39
2018-06-19T08:30:10.788Z,18.40
2018-06-19T08:32:39.943Z,18.42
2018-06-19T08:35:09.107Z,18.45
2018-06-19T08:37:38.131Z,18.44
2018-06-19T08:40:07.047Z,18.50
2018-06-19T08:42:35.978Z,18.52
2018-06-19T08:45:05.513Z,18.56
2018-06-19T08:47:34.956Z,18.60
2018-06-19T08:50:03.816Z,18.58
2018-06-19T08:52:33.135Z,18.59
2018-06-19T08:55:02.199Z,18.60
2018-06-19T08:57:31.322Z,18.63
2018-06-19T09:00:00.182Z,18.69
2018-06-19T09:02:29.530Z,18.81
2018-06-19T09:04:59.068Z,18.98
2018-06-19T09:07:28.225Z,19.12
2018-06-19T09:09:57.088Z,19.19
2018-06-19T09:12:26.725Z,19.23
2018-06-19T09:14:55.541Z,19.25
2018-06-19T09:17:25.100Z,19.29
2018-06-19T09:19:53.950Z,19.33
2018-06-19T09:22:22.877Z,19.31
2018-06-19T09:24:52.269Z,19.31
2018-06-19T09:27:21.503Z,19.33
2018-06-19T09:29:50.737Z,19.33
2018-06-19T09:32:19.928Z,19.33
2018-06-19T09:34:49.353Z,19.25
2018-06-19T09:37:18.594Z,19.22
2018-06-19T09:39:47.747Z,19.19
2018-06-19T09:42:16.889Z,19.18
2018-06-19T09:44:46.101Z,19.28
2018-06-19T09:47:15.374Z,19.39
2018-06-19T09:49:44.706Z,19.48
2018-06-19T09:52:13.538Z,19.60
2018-06-19T09:54:42.403Z,19.69
2018-06-19T09:57:11.684Z,19.74
2018-06-19T09:59:40.863Z,19.77
2018-06-19T10:02:09.741Z,19.83
2018-06-19T10:04:38.905Z,19.88
2018-06-19T10:07:08.358Z,19.92
2018-06-19T10:09:37.419Z,19.98
2018-06-19T10:12:06.513Z,20.02
2018-06-19T10:14:36.228Z,20.00
2018-06-19T10:17:05.093Z,20.05
2018-06-19T10:19:34.166Z,20.11
2018-06-19T10:22:03.074Z,20.14
2018-06-19T10:24:32.010Z,20.15
2018-06-19T10:27:01.714Z,20.18
2018-06-19T10:29:31.428Z,20.21
2018-06-19T10:32:00.683Z,20.27
2018-06-19T10:34:29.924Z,20.31
2018-06-19T10:36:59.038Z,20.36
2018-06-19T10:39:28.293Z,20.46
2018-06-19T10:41:57.685Z,20.57
2018-06-19T10:44:26.765Z,20.61
2018-06-19T10:46:56.144Z,20.69
2018-06-19T10:49:26.232Z,20.77
2018-06-19T10:51:55.494Z,20.81
2018-06-19T10:54:24.893Z,20.85
2018-06-19T10:56:54.272Z,20.85
2018-06-19T10:59:23.618Z,20.85
2018-06-19T11:01:53.016Z,20.85
2018-06-19T11:04:22.142Z,20.81
2018-06-19T11:06:51.049Z,20.81
2018-06-19T11:09:20.036Z,20.88
2018-06-19T11:11:49.011Z,20.92
2018-06-19T11:14:18.355Z,20.90
2018-06-19T11:16:47.209Z,20.95
2018-06-19T11:19:16.254Z,21.06
2018-06-19T11:21:46.057Z,21.09
2018-06-19T11:24:15.199Z,21.19
2018-06-19T11:26:44.416Z,21.31
2018-06-19T11:29:13.618Z,21.52
2018-06-19T11:31:42.455Z,21.70
2018-06-19T11:34:11.253Z,21.83
2018-06-19T11:36:40.514Z,21.94
2018-06-19T11:39:12.290Z,22.02
2018-06-19T11:41:42.159Z,22.05
2018-06-19T11:44:11.028Z,22.23
2018-06-19T11:46:39.893Z,22.41
2018-06-19T11:49:08.746Z,22.40
2018-06-19T11:51:37.767Z,22.37
2018-06-19T11:54:07.064Z,22.23
2018-06-19T11:56:36.159Z,22.01
2018-06-19T11:59:05.410Z,21.95
2018-06-19T12:01:34.586Z,21.91
2018-06-19T12:04:03.450Z,21.93
2018-06-19T12:06:32.662Z,21.99
2018-06-19T12:09:02.141Z,22.03
2018-06-19T12:11:32.050Z,22.10
2018-06-19T12:14:01.527Z,22.26
2018-06-19T12:16:31.646Z,22.41
2018-06-19T12:19:00.910Z,22.62
2018-06-19T12:21:30.200Z,22.75
2018-06-19T12:23:59.539Z,22.84
2018-06-19T12:26:28.377Z,22.95
2018-06-19T12:28:57.297Z,22.98
2018-06-19T12:31:26.203Z,23.06
2018-06-19T12:33:55.473Z,23.14
2018-06-19T12:36:24.788Z,23.20
2018-06-19T12:38:54.276Z,23.35
2018-06-19T12:41:23.636Z,23.51
2018-06-19T12:43:52.618Z,23.64
2018-06-19T12:46:21.577Z,23.72
2018-06-19T12:48:50.434Z,23.69
2018-06-19T12:52:00.185Z,23.60
2018-06-19T12:54:41.126Z,23.58
2018-06-19T12:57:09.971Z,23.52
2018-06-19T12:59:38.870Z,23.46
2018-06-19T13:02:07.808Z,23.51
2018-06-19T13:04:47.656Z,23.51
2018-06-19T13:07:16.580Z,23.41
2018-06-19T13:09:45.708Z,23.37
2018-06-19T13:13:25.204Z,23.49
2018-06-19T13:15:55.351Z,23.59
2018-06-19T13:18:36.367Z,23.56
2018-06-19T13:21:05.585Z,23.38
2018-06-19T13:23:34.512Z,23.45
2018-06-19T13:26:03.762Z,23.48
2018-06-19T13:29:50.880Z,23.42
2018-06-19T13:32:20.074Z,23.49
2018-06-19T13:34:49.280Z,23.52
2018-06-19T13:37:19.060Z,23.55
2018-06-19T13:39:49.046Z,23.62
2018-06-19T13:42:43.935Z,23.67
2018-06-19T13:45:13.185Z,23.68
2018-06-19T13:47:42.205Z,23.74
2018-06-19T13:50:11.684Z,23.72
2018-06-19T13:52:40.671Z,23.74
2018-06-19T13:57:27.533Z,23.71
2018-06-19T13:59:57.386Z,23.75
2018-06-19T14:02:26.646Z,23.76
2018-06-19T14:04:56.896Z,23.65
2018-06-19T14:07:27.260Z,23.59
2018-06-19T14:10:07.971Z,23.58
2018-06-19T14:13:14.012Z,23.59
2018-06-19T14:15:47.867Z,23.70
2018-06-19T14:18:18.305Z,23.78
2018-06-19T14:20:47.996Z,23.75
2018-06-19T14:23:17.143Z,23.67
2018-06-19T14:25:46.317Z,23.73
2018-06-19T14:28:15.196Z,23.72
2018-06-19T14:30:44.700Z,23.66
2018-06-19T14:33:13.591Z,23.71
2018-06-19T14:35:42.425Z,23.74
2018-06-19T14:38:11.283Z,23.67
2018-06-19T14:40:40.449Z,23.68
2018-06-19T14:43:10.163Z,23.78
2018-06-19T14:45:39.569Z,23.85
2018-06-19T14:48:08.371Z,23.82
2018-06-19T14:50:37.744Z,23.82
2018-06-19T14:53:07.129Z,23.84
2018-06-19T14:55:36.512Z,23.88
2018-06-19T14:58:05.563Z,23.89
2018-06-19T15:00:35.164Z,23.84
2018-06-19T15:03:04.500Z,23.80
2018-06-19T15:05:33.626Z,23.83
2018-06-19T15:08:02.740Z,23.79
2018-06-19T15:10:31.856Z,23.80
2018-06-19T15:13:00.796Z,23.60
2018-06-19T15:15:30.196Z,23.48
2018-06-19T15:17:59.702Z,23.45
2018-06-19T15:20:29.129Z,23.44
2018-06-19T15:22:58.076Z,23.41
2018-06-19T15:25:26.936Z,23.35
2018-06-19T15:27:56.293Z,23.34
2018-06-19T15:30:25.292Z,23.36
2018-06-19T15:32:54.362Z,23.39
2018-06-19T15:35:23.787Z,23.34
2018-06-19T15:37:52.950Z,23.33
2018-06-19T15:40:22.799Z,23.27
2018-06-19T15:42:51.632Z,23.21
2018-06-19T15:45:20.719Z,23.19
2018-06-19T15:47:50.222Z,23.25
2018-06-19T15:50:19.370Z,23.27
2018-06-19T15:52:48.290Z,23.28
2018-06-19T15:55:17.533Z,23.21
2018-06-19T15:57:46.353Z,23.15
2018-06-19T16:00:15.333Z,23.12
2018-06-19T16:02:44.791Z,23.10
2018-06-19T16:05:13.621Z,23.07
2018-06-19T16:07:48.319Z,23.06
2018-06-19T16:10:17.145Z,23.02
2018-06-19T16:12:46.647Z,23.03
2018-06-19T16:15:16.323Z,23.01
2018-06-19T16:17:45.549Z,23.04
2018-06-19T16:20:14.680Z,23.09
2018-06-19T16:22:43.783Z,23.15
2018-06-19T16:25:12.662Z,23.14
2018-06-19T16:27:41.884Z,23.05
2018-06-19T16:30:10.667Z,23.00
2018-06-19T16:32:39.508Z,23.00
2018-06-19T16:35:08.590Z,23.03
2018-06-19T16:37:38.075Z,23.02
2018-06-19T16:40:07.602Z,22.96
2018-06-19T16:42:37.685Z,22.98
2018-06-19T16:45:06.737Z,22.90
2018-06-19T16:47:36.189Z,22.88
2018-06-19T16:50:05.006Z,22.84
2018-06-19T16:52:33.980Z,22.79
2018-06-19T16:55:03.797Z,22.71
2018-06-19T16:57:33.171Z,22.67
2018-06-19T17:00:02.993Z,22.66
2018-06-19T17:02:32.804Z,22.62
2018-06-19T17:05:01.719Z,22.65
2018-06-19T17:07:30.579Z,22.63
2018-06-19T17:09:59.515Z,22.63
2018-06-19T17:12:28.301Z,22.60
2018-06-19T17:14:57.494Z,22.57
2018-06-19T17:17:26.891Z,22.53
2018-06-19T17:19:55.800Z,22.45
2018-06-19T17:22:24.839Z,22.44
2018-06-19T17:24:53.982Z,22.39
2018-06-19T17:27:23.469Z,22.34
2018-06-19T17:29:52.324Z,22.27
2018-06-19T17:32:21.488Z,22.26
2018-06-19T17:34:50.333Z,22.23
2018-06-19T17:37:19.778Z,22.15
2018-06-19T17:39:48.918Z,22.15
2018-06-19T17:42:17.780Z,22.16
2018-06-19T17:44:46.640Z,22.13
2018-06-19T17:47:15.833Z,22.09
2018-06-19T17:49:44.733Z,22.09
2018-06-19T17:52:13.621Z,22.09
2018-06-19T17:54:42.815Z,22.07
2018-06-19T17:57:12.476Z,22.05
2018-06-19T17:59:41.604Z,22.00
2018-06-19T18:02:10.491Z,21.95
2018-06-19T18:04:39.775Z,21.93
2018-06-19T18:07:08.877Z,21.95
2018-06-19T18:09:38.335Z,21.95
2018-06-19T18:12:07.685Z,21.93
2018-06-19T18:14:36.639Z,21.93
2018-06-19T18:17:05.831Z,21.92
2018-06-19T18:19:35.220Z,21.86
2018-06-19T18:22:04.832Z,21.80
2018-06-19T18:24:33.715Z,21.75
2018-06-19T18:27:02.596Z,21.69
2018-06-19T18:29:31.567Z,21.66
2018-06-19T18:32:00.691Z,21.65
2018-06-19T18:34:29.693Z,21.62
2018-06-19T18:36:58.778Z,21.59
2018-06-19T18:39:27.636Z,21.59
2018-06-19T18:41:57.071Z,21.58
2018-06-19T18:44:26.546Z,21.54
2018-06-19T18:46:55.820Z,21.55
2018-06-19T18:49:25.386Z,21.56
2018-06-19T18:51:54.234Z,21.56
2018-06-19T18:54:23.075Z,21.58
2018-06-19T18:56:51.889Z,21.60
2018-06-19T18:59:21.237Z,21.60
2018-06-19T19:01:50.326Z,21.61
2018-06-19T19:04:19.137Z,21.62
2018-06-19T19:06:48.483Z,21.60
2018-06-19T19:09:17.952Z,21.55
2018-06-19T19:11:47.105Z,21.53
2018-06-19T19:14:16.244Z,21.53
2018-06-19T19:16:50.835Z,21.50
2018-06-19T19:19:23.038Z,21.44
2018-06-19T19:21:52.555Z,21.41
2018-06-19T19:24:21.934Z,21.36
2018-06-19T19:26:56.018Z,21.34
2018-06-19T19:29:30.302Z,21.28
2018-06-19T19:31:59.533Z,21.18
2018-06-19T19:34:28.755Z,21.14
2018-06-19T19:37:03.012Z,21.09
2018-06-19T19:39:32.165Z,21.06
2018-06-19T19:42:00.999Z,21.03
2018-06-19T19:44:30.448Z,21.03
2018-06-19T19:47:04.414Z,21.02
2018-06-19T19:49:33.347Z,21.00
2018-06-19T19:52:02.178Z,20.98
2018-06-19T19:54:32.004Z,20.95
2018-06-19T19:57:06.201Z,20.93
2018-06-19T19:59:35.103Z,20.91
2018-06-19T20:02:03.993Z,20.89
2018-06-19T20:04:33.189Z,20.87
2018-06-19T20:07:02.651Z,20.85
2018-06-19T20:09:31.566Z,20.86
2018-06-19T20:12:00.417Z,20.86
2018-06-19T20:16:57.845Z,20.91
2018-06-19T20:19:27.011Z,20.91
2018-06-19T20:21:56.015Z,20.91
2018-06-19T20:24:25.819Z,20.88
2018-06-19T20:26:55.379Z,20.84
2018-06-19T20:29:25.001Z,20.82
2018-06-19T20:31:54.291Z,20.82
2018-06-19T20:34:23.481Z,20.81
2018-06-19T20:36:53.020Z,20.79
2018-06-19T20:39:22.097Z,20.77
2018-06-19T20:41:51.235Z,20.75
2018-06-19T20:44:20.076Z,20.70
2018-06-19T20:46:49.028Z,20.64
2018-06-19T20:49:18.231Z,20.57
2018-06-19T20:51:48.012Z,20.53
2018-06-19T20:54:16.879Z,20.48
2018-06-19T20:56:46.279Z,20.43
2018-06-19T20:59:16.309Z,20.43
2018-06-19T21:02:01.720Z,20.42
2018-06-19T21:04:31.138Z,20.42
2018-06-19T21:07:00.130Z,20.41
2018-06-19T21:09:29.038Z,20.39
2018-06-19T21:11:58.268Z,20.36
2018-06-19T21:14:27.805Z,20.33
2018-06-19T21:16:57.105Z,20.32
2018-06-19T21:19:26.562Z,20.33
2018-06-19T21:21:55.952Z,20.31
2018-06-19T21:24:25.039Z,20.32
2018-06-19T21:26:54.353Z,20.30
2018-06-19T21:29:23.268Z,20.27
2018-06-19T21:31:52.585Z,20.24
2018-06-19T21:34:21.487Z,20.20
2018-06-19T21:36:50.607Z,20.18
2018-06-19T21:39:20.167Z,20.16
2018-06-19T21:41:49.422Z,20.16
2018-06-19T21:44:18.394Z,20.14
2018-06-19T21:46:47.613Z,20.13
2018-06-19T21:49:17.130Z,20.11
2018-06-19T21:51:46.616Z,20.10
2018-06-19T21:54:15.796Z,20.08
2018-06-19T21:56:44.718Z,20.08
2018-06-19T21:59:14.176Z,20.08
2018-06-19T22:01:43.959Z,20.07
2018-06-19T22:04:13.143Z,20.03
2018-06-19T22:06:42.068Z,20.01
2018-06-19T22:09:11.263Z,19.99
2018-06-19T22:11:40.552Z,19.98
2018-06-19T22:14:09.798Z,19.97
2018-06-19T22:16:39.012Z,19.94
2018-06-19T22:19:08.033Z,19.91
2018-06-19T22:21:37.828Z,19.88
2018-06-19T22:24:07.517Z,19.85
2018-06-19T22:26:36.969Z,19.84
2018-06-19T22:29:06.070Z,19.83
2018-06-19T22:31:35.349Z,19.80
2018-06-19T22:34:04.639Z,19.76
2018-06-19T22:36:34.167Z,19.75
2018-06-19T22:39:03.311Z,19.73
2018-06-19T22:41:32.288Z,19.71
2018-06-19T22:44:02.162Z,19.73
2018-06-19T22:46:31.400Z,19.68
2018-06-19T22:49:00.836Z,19.66
2018-06-19T22:51:31.400Z,19.63
2018-06-19T22:54:01.704Z,19.63
2018-06-19T22:56:34.273Z,19.63
2018-06-19T22:59:03.269Z,19.60
2018-06-19T23:01:32.338Z,19.57
2018-06-19T23:04:01.753Z,19.52
2018-06-19T23:06:30.718Z,19.51
2018-06-19T23:09:00.153Z,19.47
2018-06-19T23:11:29.178Z,19.41
2018-06-19T23:13:58.586Z,19.34
2018-06-19T23:16:29.323Z,19.28
2018-06-19T23:18:58.326Z,19.27
2018-06-19T23:21:27.449Z,19.27
2018-06-19T23:23:56.415Z,19.23
2018-06-19T23:26:25.378Z,19.20
2018-06-19T23:28:54.608Z,19.17
2018-06-19T23:31:24.203Z,19.15
2018-06-19T23:33:53.456Z,19.14
2018-06-19T23:36:22.669Z,19.09
2018-06-19T23:38:51.947Z,19.06
2018-06-19T23:41:21.144Z,19.04
2018-06-19T23:43:50.603Z,19.02
2018-06-19T23:46:19.686Z,19.02
2018-06-19T23:48:48.958Z,19.00
2018-06-19T23:51:18.291Z,18.95
2018-06-19T23:53:47.871Z,18.91
2018-06-19T23:56:17.166Z,18.85
2018-06-19T23:58:46.758Z,18.81
